Time;durP1;ratioP1;P1;durP2;ratioP2;P2;SDS_P1;SDS_P2;PMS_P1;PMS_P2;Temp;Humidity;BMP_temperature;BMP_pressure;BME280_temperature;BME280_humidity;BME280_pressure;Samples;Min_cycle;Max_cycle;Signal;HPM_P1;HPM_P2
2023/01/01 00:00:40;;;;;;;23.75;15.23;;;16.30;99.90;;;;;;5043102;28;20072;-40
2023/01/01 00:03:06;;;;;;;18.00;13.75;;;16.30;99.90;;;;;;5043252;28;20063;-40
2023/01/01 00:05:31;;;;;;;19.98;13.68;;;16.30;99.90;;;;;;5043664;28;20025;-38
2023/01/01 00:07:57;;;;;;;16.30;12.18;;;16.30;99.90;;;;;;5042544;28;20033;-40
2023/01/01 00:10:28;;;;;;;17.65;11.38;;;16.20;99.90;;;;;;5042934;28;20061;-40
2023/01/01 00:12:58;;;;;;;19.50;11.23;;;16.30;99.90;;;;;;5043824;28;20183;-41
2023/01/01 00:15:24;;;;;;;14.00;9.68;;;16.20;99.90;;;;;;5042395;28;20435;-41
2023/01/01 00:17:50;;;;;;;17.88;9.93;;;16.30;99.90;;;;;;5042746;28;20740;-41
2023/01/01 00:20:16;;;;;;;13.70;8.85;;;16.30;99.90;;;;;;5042597;28;20357;-39
2023/01/01 00:22:41;;;;;;;15.88;8.95;;;16.30;99.90;;;;;;5042297;28;20148;-39
2023/01/01 00:25:07;;;;;;;15.05;8.15;;;16.30;99.90;;;;;;5042732;28;20029;-39
2023/01/01 00:27:33;;;;;;;12.93;7.72;;;16.30;99.90;;;;;;5043393;28;20024;-40
2023/01/01 00:30:00;;;;;;;11.40;7.20;;;16.30;99.90;;;;;;5042174;28;20063;-40
2023/01/01 00:32:25;;;;;;;9.70;6.22;;;16.30;99.90;;;;;;5043933;28;20369;-41
2023/01/01 00:34:51;;;;;;;10.75;6.93;;;16.30;99.90;;;;;;5043412;28;20044;-41
2023/01/01 00:37:17;;;;;;;11.10;6.40;;;16.30;99.90;;;;;;5042010;28;20511;-41
2023/01/01 00:39:43;;;;;;;11.57;6.40;;;16.30;99.90;;;;;;5043089;28;20018;-40
2023/01/01 00:42:09;;;;;;;12.13;5.88;;;16.30;99.90;;;;;;5042518;28;20083;-38
2023/01/01 00:44:34;;;;;;;13.65;5.90;;;16.30;99.90;;;;;;5043868;28;20409;-40
2023/01/01 00:47:00;;;;;;;13.85;6.35;;;16.30;99.90;;;;;;5046267;28;20032;-39
2023/01/01 00:49:26;;;;;;;10.30;6.30;;;16.20;99.90;;;;;;5047053;28;20032;-40
2023/01/01 00:51:52;;;;;;;10.82;5.72;;;16.20;99.90;;;;;;5045722;28;20453;-40
2023/01/01 00:54:18;;;;;;;11.70;5.15;;;16.20;99.90;;;;;;5045694;28;20490;-37
2023/01/01 00:56:43;;;;;;;11.88;5.20;;;16.20;99.90;;;;;;5045531;28;20033;-41
2023/01/01 00:59:09;;;;;;;12.60;4.50;;;16.10;99.90;;;;;;5045876;28;20032;-40
2023/01/01 01:01:34;;;;;;;10.63;6.18;;;16.10;99.90;;;;;;5046214;28;20035;-38
2023/01/01 01:04:02;;;;;;;10.20;4.95;;;16.10;99.90;;;;;;5045700;28;20025;-41
2023/01/01 01:06:28;;;;;;;10.82;5.30;;;16.10;99.90;;;;;;5045792;28;20057;-40
2023/01/01 01:08:53;;;;;;;9.38;4.75;;;16.10;99.90;;;;;;5046635;28;20123;-40
2023/01/01 01:11:21;;;;;;;8.50;5.00;;;16.10;99.90;;;;;;5045197;28;20021;-39
2023/01/01 01:13:50;;;;;;;8.85;4.40;;;16.00;99.90;;;;;;5046467;28;20025;-41
2023/01/01 01:16:25;;;;;;;7.93;3.92;;;16.00;99.90;;;;;;5045415;28;20090;-38
2023/01/01 01:18:53;;;;;;;7.75;3.92;;;16.00;99.90;;;;;;5033906;28;20163;-40
2023/01/01 01:21:20;;;;;;;10.23;3.50;;;16.00;99.90;;;;;;5045709;28;20036;-41
2023/01/01 01:23:47;;;;;;;10.35;2.90;;;16.00;99.90;;;;;;5045913;28;20140;-39
2023/01/01 01:26:14;;;;;;;5.90;2.90;;;16.00;99.90;;;;;;5045138;28;20075;-40
2023/01/01 01:28:40;;;;;;;5.35;2.80;;;16.00;99.90;;;;;;5046172;28;20072;-41
2023/01/01 01:31:06;;;;;;;7.88;3.08;;;16.00;99.90;;;;;;5045381;28;20053;-40
2023/01/01 01:33:32;;;;;;;8.10;3.15;;;16.00;99.90;;;;;;5044925;28;20080;-39
2023/01/01 01:35:58;;;;;;;6.70;2.42;;;16.00;99.90;;;;;;5045800;28;20060;-40
2023/01/01 01:38:23;;;;;;;10.23;3.45;;;16.00;99.90;;;;;;5046131;28;20029;-39
2023/01/01 01:40:49;;;;;;;5.88;2.72;;;15.90;99.90;;;;;;5045292;28;20032;-40
2023/01/01 01:43:23;;;;;;;4.55;2.22;;;15.90;99.90;;;;;;5045289;28;20021;-36
2023/01/01 01:45:53;;;;;;;7.28;2.50;;;15.90;99.90;;;;;;5045438;28;20040;-39
2023/01/01 01:48:18;;;;;;;5.35;2.35;;;15.90;99.90;;;;;;5044964;28;20700;-40
2023/01/01 01:50:47;;;;;;;8.10;3.00;;;15.80;99.90;;;;;;5045315;28;20472;-41
2023/01/01 01:53:27;;;;;;;5.63;2.53;;;15.80;99.90;;;;;;5044593;28;20056;-41
2023/01/01 01:55:57;;;;;;;6.45;3.10;;;15.90;99.90;;;;;;5044761;28;20466;-41
2023/01/01 01:58:25;;;;;;;5.95;2.92;;;15.80;99.90;;;;;;5045098;28;20151;-41
2023/01/01 02:00:51;;;;;;;5.60;2.17;;;15.80;99.90;;;;;;5044985;28;20107;-40
2023/01/01 02:03:19;;;;;;;8.20;2.92;;;15.80;99.90;;;;;;5044543;28;20426;-39
2023/01/01 02:05:45;;;;;;;6.07;2.80;;;15.80;99.90;;;;;;5045446;28;20033;-40
2023/01/01 02:08:13;;;;;;;6.15;2.03;;;15.80;99.90;;;;;;5043895;28;20009;-40
2023/01/01 02:10:39;;;;;;;5.65;2.20;;;15.80;99.90;;;;;;5045451;28;20029;-41
2023/01/01 02:13:05;;;;;;;4.28;2.10;;;15.80;99.90;;;;;;5044945;28;20022;-40
2023/01/01 02:15:38;;;;;;;4.45;2.30;;;15.80;99.90;;;;;;5044832;28;20120;-40
2023/01/01 02:18:11;;;;;;;3.88;1.90;;;15.90;99.90;;;;;;5044347;28;20032;-40
2023/01/01 02:20:48;;;;;;;7.25;1.98;;;15.90;99.90;;;;;;5044820;28;20032;-38
2023/01/01 02:23:53;;;;;;;9.82;2.33;;;15.80;99.90;;;;;;5044125;28;20539;-37
2023/01/01 02:26:37;;;;;;;3.47;1.88;;;15.80;99.90;;;;;;5035159;28;20085;-40
2023/01/01 02:29:13;;;;;;;5.60;2.47;;;15.80;99.90;;;;;;5043493;28;20029;-39
2023/01/01 02:31:45;;;;;;;6.20;1.80;;;15.80;99.90;;;;;;5044498;28;20046;-40
2023/01/01 02:34:14;;;;;;;4.63;2.03;;;15.70;99.90;;;;;;5043923;28;20045;-40
2023/01/01 02:36:47;;;;;;;4.50;2.00;;;15.80;99.90;;;;;;5043727;28;20076;-40
2023/01/01 02:39:15;;;;;;;3.80;1.65;;;15.80;99.90;;;;;;5044214;28;20021;-41
2023/01/01 02:41:44;;;;;;;4.05;2.30;;;15.80;99.90;;;;;;5044425;28;20039;-41
2023/01/01 02:44:12;;;;;;;5.65;2.22;;;15.80;99.90;;;;;;5043138;28;20076;-38
2023/01/01 02:46:38;;;;;;;3.67;1.85;;;15.80;99.90;;;;;;5045088;28;20024;-38
2023/01/01 02:49:04;;;;;;;5.15;1.80;;;15.80;99.90;;;;;;5043978;28;20044;-41
2023/01/01 02:51:54;;;;;;;8.52;2.05;;;15.80;99.90;;;;;;5044464;28;20029;-40
2023/01/01 02:54:19;;;;;;;4.45;2.05;;;15.80;99.90;;;;;;5044236;28;20025;-38
2023/01/01 02:57:08;;;;;;;6.35;1.70;;;15.80;99.90;;;;;;5043310;28;20037;-40
2023/01/01 03:00:20;;;;;;;3.22;1.52;;;15.80;99.90;;;;;;5044475;28;20040;-38
2023/01/01 03:03:16;;;;;;;3.65;1.80;;;15.80;99.90;;;;;;5037025;28;20068;-40
2023/01/01 03:08:56;;;;;;;3.58;1.50;;;15.80;99.80;;;;;;5043926;28;20151;-37
2023/01/01 03:11:27;;;;;;;4.90;1.75;;;15.80;99.90;;;;;;5041870;28;20028;-40
2023/01/01 03:14:07;;;;;;;4.00;1.58;;;15.80;99.90;;;;;;5026036;28;20108;-40
2023/01/01 03:16:47;;;;;;;5.32;1.80;;;15.80;99.90;;;;;;5039239;28;20052;-39
2023/01/01 03:19:20;;;;;;;4.95;1.60;;;15.80;99.90;;;;;;5023037;28;20109;-40
2023/01/01 03:21:50;;;;;;;3.58;1.40;;;15.80;99.90;;;;;;5038857;28;20032;-40
2023/01/01 03:24:25;;;;;;;5.95;1.83;;;15.80;99.90;;;;;;5043017;28;20025;-39
2023/01/01 03:26:56;;;;;;;4.97;1.95;;;15.80;99.90;;;;;;5044077;28;20025;-41
2023/01/01 03:29:26;;;;;;;4.90;1.50;;;15.80;99.90;;;;;;5043913;28;20063;-40
2023/01/01 03:31:55;;;;;;;8.18;2.40;;;15.70;99.90;;;;;;5041810;28;20083;-39
2023/01/01 03:34:28;;;;;;;4.72;1.45;;;15.70;99.90;;;;;;5043679;28;20060;-40
2023/01/01 03:36:57;;;;;;;3.42;1.58;;;15.70;99.70;;;;;;5044538;28;20044;-40
2023/01/01 03:39:53;;;;;;;3.72;2.28;;;15.70;99.80;;;;;;5043391;28;20051;-40
2023/01/01 03:42:39;;;;;;;4.03;1.67;;;15.70;99.90;;;;;;5042617;28;20064;-40
2023/01/01 03:45:15;;;;;;;4.63;1.80;;;15.70;99.90;;;;;;5023186;28;20040;-41
2023/01/01 03:47:40;;;;;;;4.88;1.50;;;15.70;99.80;;;;;;5038920;28;20029;-40
2023/01/01 03:50:06;;;;;;;5.72;1.85;;;15.60;99.80;;;;;;5042980;28;20029;-40
2023/01/01 03:52:41;;;;;;;3.63;1.90;;;15.60;99.80;;;;;;5042734;28;20057;-38
2023/01/01 03:55:26;;;;;;;2.40;1.35;;;15.60;99.90;;;;;;5042988;28;20049;-39
2023/01/01 03:58:03;;;;;;;4.72;1.70;;;15.60;99.90;;;;;;5043154;28;20021;-36
2023/01/01 04:00:37;;;;;;;5.63;1.50;;;15.60;99.90;;;;;;5043020;28;20618;-39
2023/01/01 04:03:14;;;;;;;6.07;2.10;;;15.60;99.90;;;;;;5042525;28;20025;-40
2023/01/01 04:05:41;;;;;;;4.90;1.75;;;15.60;99.90;;;;;;5043880;28;20029;-40
2023/01/01 04:08:08;;;;;;;3.30;1.27;;;15.50;99.90;;;;;;5042520;28;20366;-41
2023/01/01 04:10:37;;;;;;;5.13;1.65;;;15.60;99.90;;;;;;5043132;28;20481;-41
2023/01/01 04:13:05;;;;;;;5.25;1.48;;;15.60;99.90;;;;;;5042662;28;20017;-40
2023/01/01 04:15:31;;;;;;;5.28;1.50;;;15.60;99.90;;;;;;5043137;28;20032;-40
2023/01/01 04:17:57;;;;;;;6.38;1.95;;;15.50;99.90;;;;;;5042775;28;20021;-39
2023/01/01 04:20:24;;;;;;;3.28;1.58;;;15.50;99.90;;;;;;5045346;28;20033;-39
2023/01/01 04:22:50;;;;;;;3.58;1.50;;;15.50;99.90;;;;;;5046685;28;20083;-40
2023/01/01 04:25:16;;;;;;;4.20;1.65;;;15.50;99.90;;;;;;5046691;28;20524;-41
2023/01/01 04:27:42;;;;;;;2.30;1.45;;;15.50;99.90;;;;;;5046377;28;20021;-40
2023/01/01 04:30:10;;;;;;;7.82;1.90;;;15.50;99.90;;;;;;5046787;28;20110;-39
2023/01/01 04:32:36;;;;;;;5.63;1.73;;;15.50;99.90;;;;;;5046600;28;20571;-39
2023/01/01 04:35:02;;;;;;;3.17;1.25;;;15.50;99.90;;;;;;5045501;28;20132;-41
2023/01/01 04:37:28;;;;;;;2.05;1.30;;;15.60;99.90;;;;;;5047647;28;20038;-40
2023/01/01 04:39:53;;;;;;;6.85;1.60;;;15.50;99.90;;;;;;5047030;28;20024;-40
2023/01/01 04:42:19;;;;;;;4.03;1.48;;;15.50;99.90;;;;;;5046007;28;20444;-40
2023/01/01 04:44:44;;;;;;;3.03;1.35;;;15.50;99.90;;;;;;5047000;28;20543;-41
2023/01/01 04:47:10;;;;;;;6.35;1.70;;;15.50;99.90;;;;;;5046686;28;20388;-40
2023/01/01 04:49:36;;;;;;;3.47;1.40;;;15.50;99.90;;;;;;5046766;28;20032;-39
2023/01/01 04:52:02;;;;;;;4.03;1.55;;;15.50;99.90;;;;;;5046987;28;20036;-40
2023/01/01 04:54:27;;;;;;;5.53;1.88;;;15.50;99.90;;;;;;5046636;28;20029;-41
2023/01/01 04:56:53;;;;;;;5.93;1.60;;;15.50;99.90;;;;;;5045836;28;20435;-40
2023/01/01 04:59:19;;;;;;;5.57;1.33;;;15.50;99.90;;;;;;5046132;28;20456;-40
2023/01/01 05:01:44;;;;;;;4.72;1.45;;;15.50;99.90;;;;;;5046165;28;20512;-41
2023/01/01 05:04:13;;;;;;;3.80;1.30;;;15.50;99.90;;;;;;5044929;28;20028;-40
2023/01/01 05:06:38;;;;;;;4.32;1.67;;;15.50;99.90;;;;;;5046380;28;20017;-41
2023/01/01 05:09:04;;;;;;;6.63;1.63;;;15.50;99.90;;;;;;5045820;28;20090;-41
2023/01/01 05:11:31;;;;;;;3.70;1.80;;;15.50;99.90;;;;;;5045702;28;20032;-42
2023/01/01 05:13:59;;;;;;;4.60;1.85;;;15.40;99.90;;;;;;5046238;28;20049;-40
2023/01/01 05:16:37;;;;;;;7.35;1.98;;;15.40;99.90;;;;;;5046512;28;20030;-40
2023/01/01 05:19:04;;;;;;;2.80;1.52;;;15.40;99.90;;;;;;5045135;28;20086;-39
2023/01/01 05:21:32;;;;;;;4.15;1.77;;;15.40;99.90;;;;;;5045971;28;20020;-40
2023/01/01 05:24:00;;;;;;;4.30;1.52;;;15.30;99.90;;;;;;5045620;28;20029;-39
2023/01/01 05:26:30;;;;;;;4.28;1.58;;;15.30;99.90;;;;;;5045742;28;20036;-39
2023/01/01 05:28:57;;;;;;;6.97;1.77;;;15.30;99.90;;;;;;5045869;28;20376;-40
2023/01/01 05:31:26;;;;;;;4.82;1.40;;;15.30;99.90;;;;;;5044599;28;20086;-38
2023/01/01 05:33:52;;;;;;;3.85;1.40;;;15.30;99.90;;;;;;5045357;28;20556;-39
2023/01/01 05:36:21;;;;;;;3.67;1.40;;;15.20;99.90;;;;;;5045052;28;20102;-39
2023/01/01 05:38:46;;;;;;;5.00;1.80;;;15.20;99.90;;;;;;5045103;28;20028;-40
2023/01/01 05:41:14;;;;;;;3.97;1.67;;;15.20;99.90;;;;;;5044865;28;20021;-39
2023/01/01 05:43:40;;;;;;;3.33;1.50;;;15.20;99.90;;;;;;5045551;28;20651;-40
2023/01/01 05:46:09;;;;;;;3.78;1.52;;;15.20;99.90;;;;;;5043978;28;20132;-40
2023/01/01 05:48:35;;;;;;;3.90;1.35;;;15.10;99.90;;;;;;5045653;28;20037;-40
2023/01/01 05:51:03;;;;;;;5.03;1.20;;;15.10;99.90;;;;;;5044584;28;20021;-39
2023/01/01 05:53:29;;;;;;;5.97;1.50;;;15.10;99.90;;;;;;5045181;28;20755;-40
2023/01/01 05:55:56;;;;;;;2.95;1.35;;;15.10;99.90;;;;;;5045266;28;20042;-41
2023/01/01 05:58:21;;;;;;;4.35;1.60;;;15.10;99.90;;;;;;5044907;28;20107;-40
2023/01/01 06:00:47;;;;;;;4.57;1.42;;;15.10;99.90;;;;;;5045244;28;20032;-40
2023/01/01 06:03:12;;;;;;;2.97;1.50;;;15.10;99.90;;;;;;5044672;28;20028;-40
2023/01/01 06:05:38;;;;;;;6.57;1.80;;;15.10;99.90;;;;;;5045467;28;20025;-41
2023/01/01 06:08:04;;;;;;;4.95;1.40;;;15.10;99.90;;;;;;5043932;28;20013;-41
2023/01/01 06:10:29;;;;;;;3.97;1.20;;;15.00;99.90;;;;;;5044708;28;20758;-41
2023/01/01 06:12:58;;;;;;;3.78;1.30;;;15.00;99.90;;;;;;5044995;28;20017;-43
2023/01/01 06:15:26;;;;;;;4.82;1.00;;;14.90;99.90;;;;;;5044887;28;20040;-40
2023/01/01 06:17:52;;;;;;;3.80;1.35;;;14.90;99.90;;;;;;5044651;28;20037;-40
2023/01/01 06:20:18;;;;;;;3.33;1.38;;;14.90;99.90;;;;;;5043829;28;20226;-39
2023/01/01 06:22:44;;;;;;;3.50;0.80;;;14.90;99.90;;;;;;5044377;28;20032;-40
2023/01/01 06:25:10;;;;;;;3.15;1.08;;;14.90;99.90;;;;;;5044855;28;20207;-40
2023/01/01 06:27:37;;;;;;;3.65;0.98;;;14.90;99.90;;;;;;5044358;28;20545;-40
2023/01/01 06:30:05;;;;;;;2.67;1.15;;;14.90;99.90;;;;;;5044470;28;20086;-40
2023/01/01 06:32:31;;;;;;;3.40;1.00;;;14.80;99.90;;;;;;5044952;28;20029;-38
2023/01/01 06:34:56;;;;;;;2.75;1.05;;;14.80;99.90;;;;;;5043007;28;20045;-41
2023/01/01 06:37:22;;;;;;;3.30;1.13;;;14.80;99.90;;;;;;5044644;28;20028;-40
2023/01/01 06:39:48;;;;;;;6.78;1.33;;;14.70;99.90;;;;;;5044624;28;20809;-39
2023/01/01 06:42:13;;;;;;;2.67;1.00;;;14.70;99.90;;;;;;5041964;28;20041;-39
2023/01/01 06:44:39;;;;;;;4.28;1.13;;;14.70;99.90;;;;;;5045001;28;20033;-40
2023/01/01 06:47:05;;;;;;;3.17;1.10;;;14.60;99.90;;;;;;5043370;28;20059;-41
2023/01/01 06:49:30;;;;;;;3.67;1.10;;;14.60;99.90;;;;;;5044113;28;20373;-41
2023/01/01 06:51:56;;;;;;;3.88;1.13;;;14.60;99.90;;;;;;5045052;28;20111;-40
2023/01/01 06:54:21;;;;;;;4.07;1.70;;;14.60;99.90;;;;;;5043851;28;20047;-42
2023/01/01 06:56:48;;;;;;;4.43;1.58;;;14.50;99.90;;;;;;5043624;28;20106;-38
2023/01/01 06:59:15;;;;;;;3.10;1.40;;;14.50;99.90;;;;;;5043724;28;20013;-40
2023/01/01 07:01:40;;;;;;;3.63;1.30;;;14.50;99.90;;;;;;5044273;28;20029;-40
2023/01/01 07:04:09;;;;;;;4.97;1.20;;;14.50;99.90;;;;;;5042905;28;20031;-39
2023/01/01 07:06:35;;;;;;;3.33;1.10;;;14.50;99.90;;;;;;5044157;28;20559;-41
2023/01/01 07:09:02;;;;;;;3.28;0.95;;;14.40;99.90;;;;;;5043508;28;20025;-40
2023/01/01 07:11:27;;;;;;;4.97;1.40;;;14.40;99.90;;;;;;5043548;28;20025;-40
2023/01/01 07:13:53;;;;;;;8.82;2.25;;;14.30;99.90;;;;;;5044241;28;20055;-38
2023/01/01 07:16:20;;;;;;;1.58;0.80;;;14.30;99.90;;;;;;5042825;28;20037;-42
2023/01/01 07:18:47;;;;;;;2.40;1.00;;;14.20;99.90;;;;;;5043906;28;20053;-40
2023/01/01 07:21:32;;;;;;;1.95;0.80;;;14.10;99.90;;;;;;5043245;28;20114;-40
2023/01/01 07:24:02;;;;;;;2.00;0.85;;;14.00;99.90;;;;;;5042748;28;20025;-41
2023/01/01 07:26:29;;;;;;;1.35;0.63;;;13.90;99.90;;;;;;5044182;28;20451;-39
2023/01/01 07:28:55;;;;;;;3.05;0.80;;;13.80;99.90;;;;;;5044136;28;20039;-41
2023/01/01 07:31:21;;;;;;;2.20;0.60;;;13.80;99.90;;;;;;5042798;28;20032;-37
2023/01/01 07:33:46;;;;;;;2.90;0.60;;;13.70;99.90;;;;;;5043442;28;20056;-41
2023/01/01 07:36:12;;;;;;;2.67;0.50;;;13.60;99.90;;;;;;5043030;28;20120;-41
2023/01/01 07:38:38;;;;;;;1.45;0.60;;;13.60;99.90;;;;;;5043410;28;20025;-38
2023/01/01 07:41:03;;;;;;;3.45;0.80;;;13.50;99.90;;;;;;5043335;28;20040;-40
2023/01/01 07:43:30;;;;;;;1.77;0.60;;;13.40;99.90;;;;;;5044552;28;20017;-38
2023/01/01 07:45:57;;;;;;;1.08;0.40;;;13.40;99.90;;;;;;5042652;28;20029;-40
2023/01/01 07:48:22;;;;;;;1.30;0.60;;;13.30;99.90;;;;;;5043245;28;20028;-39
2023/01/01 07:50:49;;;;;;;3.13;0.77;;;13.20;99.90;;;;;;5043492;28;20033;-39
2023/01/01 07:53:15;;;;;;;2.53;0.90;;;13.20;99.90;;;;;;5042375;28;20025;-40
2023/01/01 07:55:40;;;;;;;3.55;0.85;;;13.10;99.90;;;;;;5047520;28;20044;-40
2023/01/01 07:58:06;;;;;;;1.83;0.60;;;13.10;99.90;;;;;;5046850;28;20025;-39
2023/01/01 08:00:31;;;;;;;3.03;0.85;;;13.00;99.90;;;;;;5046485;28;20035;-40
2023/01/01 08:02:57;;;;;;;2.90;0.80;;;13.00;99.90;;;;;;5046950;28;20025;-41
2023/01/01 08:05:25;;;;;;;5.75;0.88;;;13.00;99.90;;;;;;5047212;28;20021;-39
2023/01/01 08:07:51;;;;;;;2.45;0.50;;;13.00;99.90;;;;;;5047584;28;20025;-41
2023/01/01 08:10:19;;;;;;;2.88;0.93;;;13.00;99.90;;;;;;5046380;28;20033;-40
2023/01/01 08:12:44;;;;;;;3.60;0.80;;;13.00;99.90;;;;;;5046701;28;20021;-40
2023/01/01 08:15:14;;;;;;;1.58;0.70;;;13.00;99.90;;;;;;5046325;28;20040;-40
2023/01/01 08:17:40;;;;;;;4.43;0.90;;;13.00;99.90;;;;;;5046981;28;20036;-39
2023/01/01 08:20:06;;;;;;;2.20;0.90;;;13.00;99.90;;;;;;5045982;28;20025;-42
2023/01/01 08:22:32;;;;;;;2.95;0.93;;;13.00;99.90;;;;;;5046659;28;20029;-41
2023/01/01 08:24:58;;;;;;;3.72;0.80;;;13.00;99.90;;;;;;5046490;28;20036;-40
2023/01/01 08:27:23;;;;;;;2.97;0.70;;;13.00;99.90;;;;;;5046178;28;20032;-40
2023/01/01 08:29:49;;;;;;;3.78;0.80;;;13.00;99.90;;;;;;5047275;28;20025;-40
2023/01/01 08:32:14;;;;;;;3.13;0.80;;;13.00;99.90;;;;;;5046319;28;20075;-39
2023/01/01 08:34:40;;;;;;;5.45;0.90;;;13.00;99.90;;;;;;5045976;28;20055;-39
2023/01/01 08:37:10;;;;;;;3.80;0.80;;;13.00;99.90;;;;;;5045948;28;20491;-40
2023/01/01 08:39:35;;;;;;;2.35;0.82;;;13.00;99.90;;;;;;5047735;28;20025;-40
2023/01/01 08:42:01;;;;;;;2.72;0.80;;;13.00;99.90;;;;;;5045888;28;20032;-40
2023/01/01 08:44:26;;;;;;;2.67;0.77;;;13.00;99.90;;;;;;5046732;28;20621;-40
2023/01/01 08:46:52;;;;;;;1.90;0.70;;;13.00;99.90;;;;;;5046534;28;20028;-38
2023/01/01 08:49:18;;;;;;;4.15;0.80;;;13.10;99.90;;;;;;5045563;28;20029;-40
2023/01/01 08:51:43;;;;;;;2.40;0.90;;;13.10;99.90;;;;;;5046905;28;20028;-39
2023/01/01 08:54:09;;;;;;;4.00;0.75;;;13.10;99.90;;;;;;5046009;28;20025;-40
2023/01/01 08:56:36;;;;;;;3.05;0.88;;;13.00;99.90;;;;;;5046014;28;20044;-40
2023/01/01 08:59:02;;;;;;;2.92;0.85;;;13.10;99.90;;;;;;5045751;28;20021;-40
2023/01/01 09:01:28;;;;;;;3.45;1.00;;;13.10;99.90;;;;;;5045859;28;20852;-39
2023/01/01 09:03:53;;;;;;;3.47;0.80;;;13.10;99.90;;;;;;5046260;28;20021;-40
2023/01/01 09:06:19;;;;;;;3.95;0.80;;;13.10;99.90;;;;;;5045252;28;20480;-40
2023/01/01 09:08:45;;;;;;;3.20;1.08;;;13.10;99.90;;;;;;5046478;28;20373;-40
2023/01/01 09:11:23;;;;;;;2.35;0.98;;;13.10;99.90;;;;;;5045967;28;20068;-36
2023/01/01 09:13:49;;;;;;;2.08;0.70;;;13.10;99.90;;;;;;5045897;28;20028;-40
2023/01/01 09:16:15;;;;;;;3.15;0.68;;;13.10;99.90;;;;;;5045124;28;20039;-40
2023/01/01 09:18:40;;;;;;;3.75;0.90;;;13.20;99.90;;;;;;5046372;28;20029;-39
2023/01/01 09:21:06;;;;;;;4.82;1.10;;;13.20;99.90;;;;;;5045341;28;20032;-40
2023/01/01 09:23:31;;;;;;;4.65;0.90;;;13.30;99.90;;;;;;5046055;28;20013;-41
2023/01/01 09:26:05;;;;;;;3.80;0.90;;;13.20;99.90;;;;;;5045534;28;20485;-40
2023/01/01 09:28:31;;;;;;;3.25;1.77;;;13.20;99.90;;;;;;5046064;28;20029;-40
2023/01/01 09:30:56;;;;;;;2.28;0.85;;;13.20;99.90;;;;;;5045614;28;20075;-38
2023/01/01 09:33:22;;;;;;;2.83;1.00;;;13.20;99.90;;;;;;5045803;28;20049;-41
2023/01/01 09:35:48;;;;;;;4.93;1.15;;;13.20;99.90;;;;;;5046558;28;20049;-39
2023/01/01 09:38:13;;;;;;;6.57;1.15;;;13.20;99.90;;;;;;5044862;28;20060;-40
2023/01/01 09:41:08;;;;;;;5.68;1.50;;;13.20;99.90;;;;;;5046749;28;20408;-38
2023/01/01 09:44:03;;;;;;;4.90;1.50;;;13.20;99.90;;;;;;5045908;28;20559;-37
2023/01/01 09:46:28;;;;;;;3.67;0.95;;;13.10;99.90;;;;;;5035109;28;20582;-39
2023/01/01 09:48:59;;;;;;;3.28;1.00;;;13.00;99.90;;;;;;5046205;28;20055;-39
2023/01/01 09:51:32;;;;;;;5.20;1.05;;;13.00;99.90;;;;;;5045317;28;20136;-40
2023/01/01 09:54:17;;;;;;;3.67;0.93;;;13.00;99.90;;;;;;5045680;28;20017;-40
2023/01/01 09:56:44;;;;;;;5.15;1.00;;;13.10;99.90;;;;;;5045417;28;20745;-37
2023/01/01 09:59:10;;;;;;;5.85;1.33;;;13.10;99.90;;;;;;5044370;28;20063;-37
2023/01/01 10:01:56;;;;;;;2.72;0.85;;;13.20;99.90;;;;;;5045308;28;20037;-39
2023/01/01 10:04:40;;;;;;;5.28;1.45;;;13.20;99.90;;;;;;5044657;28;20059;-41
2023/01/01 10:07:11;;;;;;;3.42;1.20;;;13.30;99.90;;;;;;5044617;28;20033;-39
2023/01/01 10:09:56;;;;;;;5.07;1.10;;;13.30;99.90;;;;;;5045239;28;20751;-40
2023/01/01 10:12:54;;;;;;;4.93;1.20;;;13.30;99.90;;;;;;5044416;28;20039;-37
2023/01/01 10:15:24;;;;;;;3.83;1.23;;;13.30;99.90;;;;;;5044185;28;20045;-38
2023/01/01 10:17:56;;;;;;;4.82;1.13;;;13.40;99.90;;;;;;5045789;28;20064;-39
2023/01/01 10:20:32;;;;;;;4.88;1.10;;;13.40;99.90;;;;;;5044071;28;20377;-38
2023/01/01 10:23:02;;;;;;;4.38;1.52;;;13.30;99.90;;;;;;5045078;28;20037;-36
2023/01/01 10:25:31;;;;;;;3.83;1.58;;;13.40;99.90;;;;;;5045039;28;20025;-38
2023/01/01 10:28:33;;;;;;;7.25;2.30;;;13.40;99.90;;;;;;5044067;28;20032;-39
2023/01/01 10:31:28;;;;;;;8.32;2.33;;;13.40;99.90;;;;;;5044797;28;20112;-36
2023/01/01 10:33:53;;;;;;;4.25;1.80;;;13.40;99.90;;;;;;5024588;28;20050;-37
2023/01/01 10:36:19;;;;;;;5.82;1.70;;;13.30;99.90;;;;;;5040178;28;20036;-40
2023/01/01 10:38:47;;;;;;;4.97;1.42;;;13.30;99.90;;;;;;5044480;28;20028;-41
2023/01/01 10:41:13;;;;;;;5.13;1.45;;;13.30;99.90;;;;;;5043214;28;20029;-39
2023/01/01 10:43:39;;;;;;;6.18;1.30;;;13.20;99.90;;;;;;5044931;28;20021;-39
2023/01/01 10:46:05;;;;;;;7.25;1.25;;;13.20;99.90;;;;;;5043760;28;20868;-39
2023/01/01 10:48:32;;;;;;;3.85;1.30;;;13.20;99.90;;;;;;5044404;28;20021;-38
2023/01/01 10:51:00;;;;;;;6.22;1.42;;;13.10;99.90;;;;;;5044267;28;20082;-39
2023/01/01 10:53:41;;;;;;;3.85;1.10;;;13.10;99.90;;;;;;5044274;28;20389;-40
2023/01/01 10:56:18;;;;;;;5.22;1.27;;;13.10;99.90;;;;;;5042645;28;20037;-37
2023/01/01 10:58:51;;;;;;;5.47;1.25;;;13.10;99.90;;;;;;5044591;28;20036;-40
2023/01/01 11:01:16;;;;;;;4.35;1.77;;;13.00;99.90;;;;;;5043318;28;20368;-36
2023/01/01 11:03:56;;;;;;;4.90;1.38;;;13.00;99.90;;;;;;5043346;28;20029;-39
2023/01/01 11:06:30;;;;;;;4.43;1.65;;;12.90;99.90;;;;;;5044019;28;20036;-39
2023/01/01 11:08:58;;;;;;;4.32;1.30;;;12.90;99.90;;;;;;5043761;28;20060;-39
2023/01/01 11:11:41;;;;;;;5.65;1.45;;;12.80;99.90;;;;;;5043562;28;20027;-37
2023/01/01 11:14:24;;;;;;;4.40;1.33;;;12.90;99.90;;;;;;5043946;28;20115;-38
2023/01/01 11:16:50;;;;;;;4.40;1.20;;;12.90;99.90;;;;;;5042841;28;20115;-39
2023/01/01 11:19:22;;;;;;;4.20;1.42;;;12.90;99.90;;;;;;5043133;28;20473;-40
2023/01/01 11:21:48;;;;;;;4.45;1.10;;;13.00;99.90;;;;;;5043584;28;20854;-40
2023/01/01 11:24:22;;;;;;;5.78;1.52;;;13.00;99.90;;;;;;5042681;28;20112;-40
2023/01/01 11:26:50;;;;;;;4.55;1.25;;;13.00;99.90;;;;;;5043768;28;20029;-39
2023/01/01 11:29:15;;;;;;;5.38;1.20;;;12.90;99.90;;;;;;5042409;28;20032;-39
2023/01/01 11:31:43;;;;;;;4.43;1.25;;;13.00;99.90;;;;;;5043649;28;20366;-39
2023/01/01 11:34:24;;;;;;;5.18;1.85;;;13.00;99.90;;;;;;5042914;28;20355;-38
2023/01/01 11:36:50;;;;;;;3.92;1.70;;;12.90;99.90;;;;;;5042731;28;20446;-38
2023/01/01 11:39:27;;;;;;;3.05;1.27;;;13.00;99.90;;;;;;5043420;28;20021;-40
2023/01/01 11:41:55;;;;;;;4.15;1.33;;;13.00;99.90;;;;;;5043806;28;20025;-40
2023/01/01 11:44:47;;;;;;;2.42;1.40;;;13.00;99.90;;;;;;5039201;28;20018;-40
2023/01/01 11:47:36;;;;;;;3.38;1.50;;;13.10;99.90;;;;;;5043593;28;20044;-39
2023/01/01 11:50:20;;;;;;;2.75;1.33;;;13.10;99.90;;;;;;5033865;28;20065;-39
2023/01/01 11:52:51;;;;;;;3.30;1.42;;;13.10;99.90;;;;;;5043301;28;20024;-37
2023/01/01 11:55:16;;;;;;;2.55;1.60;;;13.20;99.90;;;;;;5043342;28;20021;-41
2023/01/01 11:57:53;;;;;;;4.20;1.88;;;13.20;99.90;;;;;;5043351;28;20078;-38
2023/01/01 12:00:18;;;;;;;4.32;2.22;;;13.30;99.90;;;;;;5034982;28;20562;-38
2023/01/01 12:03:14;;;;;;;3.50;2.00;;;13.30;99.90;;;;;;5043686;28;20033;-38
2023/01/01 12:05:50;;;;;;;5.22;2.08;;;13.40;99.90;;;;;;5033190;28;20045;-40
2023/01/01 12:08:32;;;;;;;4.57;2.38;;;13.40;99.90;;;;;;5042726;28;20029;-39
2023/01/01 12:11:14;;;;;;;3.80;1.75;;;13.40;99.90;;;;;;5043620;28;20480;-36
2023/01/01 12:14:18;;;;;;;3.38;2.00;;;13.40;99.90;;;;;;5043192;28;20035;-38
2023/01/01 12:17:06;;;;;;;7.53;2.78;;;13.50;99.90;;;;;;5034554;28;20050;-39
2023/01/01 12:19:51;;;;;;;3.88;1.65;;;13.50;99.90;;;;;;5043214;28;20021;-40
2023/01/01 12:22:18;;;;;;;4.25;2.25;;;13.50;99.90;;;;;;5043200;28;20048;-38
2023/01/01 12:24:46;;;;;;;4.55;1.98;;;13.50;99.90;;;;;;5043374;28;20082;-40
2023/01/01 12:27:30;;;;;;;6.80;2.10;;;13.60;99.90;;;;;;5041990;28;20469;-38
2023/01/01 12:30:24;;;;;;;4.53;1.98;;;13.50;99.90;;;;;;5043144;28;20025;-41
2023/01/01 12:32:58;;;;;;;6.15;2.17;;;13.60;99.90;;;;;;5023738;28;20473;-38
2023/01/01 12:35:54;;;;;;;7.50;2.45;;;13.60;99.90;;;;;;5039762;28;20037;-39
2023/01/01 12:38:58;;;;;;;3.88;2.03;;;13.60;99.90;;;;;;5022974;28;20064;-39
2023/01/01 12:41:45;;;;;;;6.38;1.77;;;13.70;99.90;;;;;;5041442;28;20096;-40
2023/01/01 12:44:13;;;;;;;9.63;2.60;;;13.70;99.90;;;;;;5046360;28;20025;-38
2023/01/01 12:46:54;;;;;;;5.93;2.28;;;13.80;99.90;;;;;;5046769;28;20039;-39
2023/01/01 12:49:37;;;;;;;6.72;2.13;;;13.90;99.90;;;;;;5045362;28;20115;-40
2023/01/01 12:52:15;;;;;;;;;;;13.90;99.90;;;;;;5035668;28;20025;-39
2023/01/01 12:55:19;;;;;;;8.18;2.30;;;14.00;99.90;;;;;;5045923;28;19909;-39
2023/01/01 12:58:03;;;;;;;7.68;2.97;;;14.00;99.90;;;;;;5040137;28;20056;-40
2023/01/01 13:00:31;;;;;;;7.60;2.35;;;14.10;99.90;;;;;;5046288;28;20568;-37
2023/01/01 13:03:03;;;;;;;7.80;2.42;;;14.10;99.90;;;;;;5046108;28;20029;-39
2023/01/01 13:05:38;;;;;;;;;;;14.10;99.90;;;;;;5047002;28;20033;-40